createdAt,value
2017-09-14T00:01:00.209Z,16.40
2017-09-14T00:06:50.179Z,16.40
2017-09-14T00:09:45.285Z,16.40
2017-09-14T00:12:40.214Z,16.39
2017-09-14T00:15:35.132Z,16.38
2017-09-14T00:18:30.145Z,16.36
2017-09-14T00:21:25.202Z,16.35
2017-09-14T00:24:20.179Z,16.34
2017-09-14T00:27:15.150Z,16.32
2017-09-14T00:30:10.216Z,16.29
2017-09-14T00:33:05.156Z,16.26
2017-09-14T00:36:00.190Z,16.24
2017-09-14T00:38:55.194Z,16.22
2017-09-14T00:41:50.238Z,16.21
2017-09-14T00:44:45.150Z,16.20
2017-09-14T00:47:40.146Z,16.20
2017-09-14T00:50:35.118Z,16.20
2017-09-14T00:53:30.181Z,16.19
2017-09-14T00:56:25.152Z,16.18
2017-09-14T00:59:20.109Z,16.17
2017-09-14T01:02:15.186Z,16.16
2017-09-14T01:05:10.186Z,16.14
2017-09-14T01:08:05.205Z,16.12
2017-09-14T01:11:00.159Z,16.10
2017-09-14T01:13:55.127Z,16.09
2017-09-14T01:16:50.099Z,16.07
2017-09-14T01:19:45.097Z,16.06
2017-09-14T01:22:40.030Z,16.05
2017-09-14T01:25:35.048Z,16.04
2017-09-14T01:28:30.031Z,16.02
2017-09-14T01:31:24.952Z,16.01
2017-09-14T01:34:19.896Z,16.02
2017-09-14T01:37:14.858Z,16.02
2017-09-14T01:40:09.788Z,16.01
2017-09-14T01:43:04.666Z,16.02
2017-09-14T01:45:59.674Z,16.02
2017-09-14T01:48:54.594Z,16.03
2017-09-14T01:51:49.580Z,16.04
2017-09-14T01:54:44.542Z,16.04
2017-09-14T01:57:39.429Z,16.05
2017-09-14T02:00:34.341Z,16.07
2017-09-14T02:03:29.381Z,16.07
2017-09-14T02:06:24.376Z,16.06
2017-09-14T02:09:19.366Z,16.06
2017-09-14T02:12:14.315Z,16.06
2017-09-14T02:15:09.203Z,16.06
2017-09-14T02:18:04.141Z,16.07
2017-09-14T02:20:59.033Z,16.08
2017-09-14T02:23:54.040Z,16.09
2017-09-14T02:26:49.036Z,16.09
2017-09-14T02:29:43.978Z,16.10
2017-09-14T02:32:38.943Z,16.11
2017-09-14T02:35:33.882Z,16.11
2017-09-14T02:38:28.871Z,16.12
2017-09-14T02:41:23.871Z,16.13
2017-09-14T02:44:18.968Z,16.14
2017-09-14T02:47:14.008Z,16.14
2017-09-14T02:50:09.006Z,16.13
2017-09-14T02:53:04.050Z,16.13
2017-09-14T02:55:59.038Z,16.14
2017-09-14T02:58:53.979Z,16.14
2017-09-14T03:01:48.929Z,16.14
2017-09-14T03:04:43.882Z,16.14
2017-09-14T03:07:38.936Z,16.13
2017-09-14T03:10:33.931Z,16.11
2017-09-14T03:13:28.974Z,16.09
2017-09-14T03:16:23.987Z,16.07
2017-09-14T03:19:19.034Z,16.07
2017-09-14T03:22:13.828Z,16.05
2017-09-14T03:25:08.813Z,16.01
2017-09-14T03:28:03.759Z,15.99
2017-09-14T03:30:58.699Z,15.96
2017-09-14T03:33:53.581Z,15.93
2017-09-14T03:36:48.551Z,15.92
2017-09-14T03:39:43.436Z,15.90
2017-09-14T03:42:38.293Z,15.87
2017-09-14T03:45:33.260Z,15.85
2017-09-14T03:48:28.171Z,15.83
2017-09-14T03:51:23.123Z,15.82
2017-09-14T03:54:17.991Z,15.81
2017-09-14T03:57:13.038Z,15.79
2017-09-14T04:00:08.047Z,15.78
2017-09-14T04:03:03.057Z,15.78
2017-09-14T04:05:57.935Z,15.77
2017-09-14T04:08:52.820Z,15.76
2017-09-14T04:11:47.690Z,15.75
2017-09-14T04:14:42.619Z,15.76
2017-09-14T04:17:38.071Z,15.75
2017-09-14T04:20:33.048Z,15.74
2017-09-14T04:23:39.295Z,15.75
2017-09-14T04:26:29.397Z,15.78
2017-09-14T04:32:13.810Z,15.85
2017-09-14T04:34:58.145Z,15.99
2017-09-14T04:37:52.474Z,16.05
2017-09-14T04:40:47.192Z,16.05
2017-09-14T04:43:42.020Z,16.04
2017-09-14T04:46:36.952Z,16.00
2017-09-14T04:49:31.835Z,15.97
2017-09-14T04:55:04.963Z,16.01
2017-09-14T04:57:49.512Z,16.14
2017-09-14T05:00:43.776Z,16.19
2017-09-14T05:03:38.747Z,16.20
2017-09-14T05:06:33.540Z,16.19
2017-09-14T05:09:28.365Z,16.18
2017-09-14T05:19:55.313Z,16.55
2017-09-14T05:22:39.161Z,16.72
2017-09-14T05:25:33.197Z,16.78
2017-09-14T05:28:27.708Z,16.74
2017-09-14T05:31:22.524Z,16.68
2017-09-14T05:39:44.954Z,16.74
2017-09-14T05:45:23.052Z,16.84
2017-09-14T05:48:17.699Z,16.78
2017-09-14T05:51:12.861Z,16.71
2017-09-14T05:56:45.801Z,16.64
2017-09-14T06:00:38.132Z,16.74
2017-09-14T06:03:23.190Z,16.78
2017-09-14T06:06:17.664Z,16.78
2017-09-14T06:09:12.435Z,16.74
2017-09-14T06:12:07.342Z,16.68
2017-09-14T06:15:02.316Z,16.62
2017-09-14T06:22:51.128Z,16.65
2017-09-14T06:25:35.138Z,16.80
2017-09-14T06:28:29.262Z,16.83
2017-09-14T06:31:23.929Z,16.81
2017-09-14T06:34:18.702Z,16.75
2017-09-14T06:37:36.163Z,16.68
2017-09-14T06:40:24.262Z,16.64
2017-09-14T06:43:19.134Z,16.58
2017-09-14T06:51:01.868Z,16.48
2017-09-14T06:56:47.761Z,16.57
2017-09-14T07:00:27.630Z,16.56
2017-09-14T07:09:39.762Z,16.63
2017-09-14T07:12:34.612Z,16.61
2017-09-14T07:16:48.585Z,16.58
2017-09-14T07:19:33.866Z,16.62
2017-09-14T07:22:28.444Z,16.65
2017-09-14T07:25:23.274Z,16.63
2017-09-14T07:28:18.229Z,16.61
2017-09-14T07:31:13.213Z,16.58
2017-09-14T07:34:08.223Z,16.56
2017-09-14T07:37:03.089Z,16.53
2017-09-14T07:39:57.951Z,16.53
2017-09-14T07:43:15.715Z,16.54
2017-09-14T07:48:58.671Z,16.56
2017-09-14T07:51:53.593Z,16.57
2017-09-14T07:54:48.717Z,16.59
2017-09-14T07:57:43.608Z,16.61
2017-09-14T08:00:38.688Z,16.62
2017-09-14T08:03:33.661Z,16.64
2017-09-14T08:06:28.760Z,16.65
2017-09-14T08:09:23.779Z,16.67
2017-09-14T08:12:18.710Z,16.69
2017-09-14T08:15:13.734Z,16.70
2017-09-14T08:18:08.810Z,16.71
2017-09-14T08:21:03.848Z,16.72
2017-09-14T08:23:58.878Z,16.72
2017-09-14T08:26:53.839Z,16.73
2017-09-14T08:29:48.748Z,16.73
2017-09-14T08:32:43.781Z,16.73
2017-09-14T08:35:38.791Z,16.74
2017-09-14T08:38:33.730Z,16.75
2017-09-14T08:41:28.730Z,16.77
2017-09-14T08:44:23.754Z,16.80
2017-09-14T08:47:18.683Z,16.82
2017-09-14T08:53:08.738Z,16.86
2017-09-14T08:56:03.700Z,16.87
2017-09-14T08:58:58.841Z,16.88
2017-09-14T09:01:53.804Z,16.90
2017-09-14T09:04:48.867Z,16.90
2017-09-14T09:07:43.913Z,16.92
2017-09-14T09:10:39.123Z,16.93
2017-09-14T09:13:34.164Z,16.93
2017-09-14T09:16:29.115Z,16.93
2017-09-14T09:19:24.132Z,16.94
2017-09-14T09:22:19.191Z,16.93
2017-09-14T09:25:14.241Z,16.93
2017-09-14T09:28:09.205Z,16.93
2017-09-14T09:31:04.227Z,16.93
2017-09-14T09:36:54.343Z,16.94
2017-09-14T09:39:49.383Z,16.95
2017-09-14T09:42:44.450Z,16.97
2017-09-14T09:45:39.522Z,16.98
2017-09-14T09:48:34.641Z,16.98
2017-09-14T09:51:29.646Z,16.99
2017-09-14T09:54:24.670Z,16.99
2017-09-14T09:57:19.809Z,17.01
2017-09-14T10:00:14.877Z,17.01
2017-09-14T10:03:09.933Z,17.01
2017-09-14T10:06:04.841Z,17.02
2017-09-14T10:08:59.881Z,17.04
2017-09-14T10:11:54.944Z,17.05
2017-09-14T10:14:49.922Z,17.07
2017-09-14T10:17:44.948Z,17.07
2017-09-14T10:20:39.970Z,17.08
2017-09-14T10:23:35.118Z,17.09
2017-09-14T10:26:30.097Z,17.09
2017-09-14T10:29:25.095Z,17.10
2017-09-14T10:32:20.191Z,17.12
2017-09-14T10:35:15.276Z,17.15
2017-09-14T10:38:10.293Z,17.18
2017-09-14T10:41:05.311Z,17.21
2017-09-14T10:44:00.429Z,17.25
2017-09-14T10:46:55.491Z,17.28
2017-09-14T10:49:50.471Z,17.33
2017-09-14T10:52:45.568Z,17.37
2017-09-14T10:55:40.673Z,17.41
2017-09-14T10:58:35.691Z,17.44
2017-09-14T11:01:30.796Z,17.44
2017-09-14T11:04:25.918Z,17.44
2017-09-14T11:07:20.999Z,17.48
2017-09-14T11:10:16.017Z,17.51
2017-09-14T11:13:11.077Z,17.52
2017-09-14T11:16:06.123Z,17.53
2017-09-14T11:19:01.198Z,17.53
2017-09-14T11:21:56.242Z,17.54
2017-09-14T11:24:51.353Z,17.54
2017-09-14T11:27:46.388Z,17.55
2017-09-14T11:30:41.529Z,17.56
2017-09-14T11:33:36.571Z,17.56
2017-09-14T11:36:31.776Z,17.57
2017-09-14T11:42:21.980Z,17.60
2017-09-14T11:45:17.046Z,17.57
2017-09-14T11:48:12.086Z,17.46
2017-09-14T11:51:07.139Z,17.32
2017-09-14T11:54:02.136Z,17.24
2017-09-14T11:56:57.003Z,17.16
2017-09-14T11:59:52.051Z,17.10
2017-09-14T12:05:42.137Z,17.00
2017-09-14T12:08:37.056Z,16.98
2017-09-14T12:11:32.027Z,16.97
2017-09-14T12:14:27.103Z,16.97
2017-09-14T12:17:22.013Z,16.98
2017-09-14T12:20:17.001Z,16.98
2017-09-14T12:23:12.051Z,16.99
2017-09-14T12:26:07.069Z,17.01
2017-09-14T12:29:02.203Z,17.03
2017-09-14T12:31:57.256Z,17.04
2017-09-14T12:34:52.299Z,17.07
2017-09-14T12:37:47.329Z,17.09
2017-09-14T12:40:42.459Z,17.10
2017-09-14T12:43:37.548Z,17.11
2017-09-14T13:12:54.671Z,18.49
2017-09-14T13:16:23.638Z,18.50
2017-09-14T13:20:51.162Z,18.37
2017-09-14T13:23:35.960Z,18.29
2017-09-14T13:26:30.439Z,18.15
2017-09-14T13:29:25.227Z,18.01
2017-09-14T13:32:20.168Z,17.87
2017-09-14T13:35:15.066Z,17.72
2017-09-14T13:38:10.096Z,17.60
2017-09-14T13:41:05.057Z,17.50
2017-09-14T13:46:15.663Z,17.45
2017-09-14T13:49:00.315Z,17.53
2017-09-14T13:51:54.774Z,17.52
2017-09-14T13:54:49.728Z,17.48
2017-09-14T13:57:44.728Z,17.44
2017-09-14T14:00:39.747Z,17.41
2017-09-14T14:03:34.845Z,17.35
2017-09-14T14:06:30.017Z,17.32
2017-09-14T14:12:20.049Z,17.23
2017-09-14T14:15:15.206Z,17.19
2017-09-14T14:18:10.265Z,17.18
2017-09-14T14:21:05.350Z,17.17
2017-09-14T14:24:00.473Z,17.18
2017-09-14T14:26:55.499Z,17.17
2017-09-14T14:29:50.533Z,17.18
2017-09-14T14:35:40.746Z,17.17
2017-09-14T14:38:35.807Z,17.17
2017-09-14T14:41:30.815Z,17.16
2017-09-14T14:44:25.893Z,17.14
2017-09-14T14:47:20.944Z,17.12
2017-09-14T14:50:15.961Z,17.11
2017-09-14T14:53:10.855Z,17.09
2017-09-14T14:59:01.097Z,17.08
2017-09-14T15:01:56.058Z,17.09
2017-09-14T15:04:51.058Z,17.09
2017-09-14T15:07:46.066Z,17.08
2017-09-14T15:10:41.148Z,17.07
2017-09-14T15:13:36.124Z,17.05
2017-09-14T15:16:31.248Z,16.97
2017-09-14T15:19:26.312Z,16.87
2017-09-14T15:22:21.359Z,16.75
2017-09-14T15:25:16.466Z,16.59
2017-09-14T15:28:11.397Z,16.45
2017-09-14T15:31:06.441Z,16.32
2017-09-14T15:34:01.355Z,16.21
2017-09-14T15:41:39.530Z,16.05
2017-09-14T15:45:09.572Z,16.10
2017-09-14T15:49:37.265Z,16.15
2017-09-14T15:52:22.074Z,16.22
2017-09-14T16:00:21.647Z,16.36
2017-09-14T16:03:05.530Z,16.47
2017-09-14T16:05:59.570Z,16.45
2017-09-14T16:08:54.191Z,16.37
2017-09-14T16:11:49.022Z,16.26
2017-09-14T16:14:44.220Z,16.15
2017-09-14T16:17:39.107Z,16.04
2017-09-14T16:20:45.292Z,15.93
2017-09-14T16:32:26.493Z,16.23
2017-09-14T16:35:55.502Z,16.36
2017-09-14T16:38:41.112Z,16.36
2017-09-14T16:41:35.534Z,16.29
2017-09-14T16:52:14.004Z,16.36
2017-09-14T16:54:57.889Z,16.45
2017-09-14T16:57:51.834Z,16.40
2017-09-14T17:00:46.433Z,16.27
2017-09-14T17:06:19.506Z,16.04
2017-09-14T17:14:09.038Z,16.07
2017-09-14T17:16:52.919Z,16.12
2017-09-14T17:30:13.564Z,16.02
2017-09-14T17:34:50.323Z,16.10
2017-09-14T17:37:34.636Z,16.09
2017-09-14T17:40:28.820Z,16.00
2017-09-14T17:43:34.792Z,15.86
2017-09-14T17:54:42.079Z,15.81
2017-09-14T17:57:25.788Z,15.88
2017-09-14T18:00:19.798Z,15.83
2017-09-14T18:03:14.413Z,15.72
2017-09-14T18:16:30.672Z,15.79
2017-09-14T18:19:14.222Z,15.87
2017-09-14T18:22:08.085Z,15.83
2017-09-14T18:25:02.584Z,15.73
2017-09-14T18:34:44.212Z,15.63
2017-09-14T18:37:28.015Z,15.70
2017-09-14T18:40:21.947Z,15.64
2017-09-14T18:43:16.449Z,15.52
2017-09-14T18:59:16.277Z,15.68
2017-09-14T19:02:10.227Z,15.65
2017-09-14T19:05:04.791Z,15.55
2017-09-14T19:08:33.424Z,15.41
2017-09-14T19:11:20.335Z,15.31
2017-09-14T19:17:57.136Z,15.13
2017-09-14T19:32:21.092Z,15.44
2017-09-14T19:35:04.647Z,15.52
2017-09-14T19:37:58.515Z,15.48
2017-09-14T19:49:32.794Z,15.50
2017-09-14T19:52:16.505Z,15.57
2017-09-14T19:55:10.393Z,15.53
2017-09-14T19:58:04.888Z,15.44
2017-09-14T20:04:11.758Z,15.23
2017-09-14T20:07:41.146Z,15.27
2017-09-14T20:15:09.359Z,15.32
2017-09-14T20:17:53.341Z,15.39
2017-09-14T20:23:41.789Z,15.27
2017-09-14T20:36:00.131Z,15.28
2017-09-14T20:38:43.970Z,15.40
2017-09-14T20:41:37.973Z,15.38
2017-09-14T20:44:32.413Z,15.32
2017-09-14T20:47:27.291Z,15.24
2017-09-14T20:52:03.796Z,15.13
2017-09-14T20:54:48.476Z,15.15
2017-09-14T20:57:42.914Z,15.12
2017-09-14T21:00:48.934Z,15.06
2017-09-14T21:04:24.023Z,15.00
2017-09-14T21:07:32.788Z,14.99
2017-09-14T21:10:20.678Z,14.97
2017-09-14T21:13:26.666Z,14.94
2017-09-14T21:18:32.874Z,14.90
2017-09-14T21:23:55.017Z,15.04
2017-09-14T21:26:39.316Z,15.13
2017-09-14T21:29:33.451Z,15.13
2017-09-14T21:32:28.038Z,15.09
2017-09-14T21:35:23.035Z,15.01
2017-09-14T21:38:17.844Z,14.94
2017-09-14T21:41:13.761Z,14.87
2017-09-14T21:44:07.555Z,14.82
2017-09-14T21:48:55.455Z,14.74
2017-09-14T21:51:40.193Z,14.79
2017-09-14T21:54:34.672Z,14.81
2017-09-14T22:03:30.884Z,15.03
2017-09-14T22:06:14.658Z,15.18
2017-09-14T22:09:08.586Z,15.22
2017-09-14T22:12:03.170Z,15.18
2017-09-14T22:14:57.954Z,15.12
2017-09-14T22:17:52.701Z,15.05
2017-09-14T22:22:51.818Z,14.98
2017-09-14T22:25:36.383Z,15.04
2017-09-14T22:39:09.079Z,15.54
2017-09-14T22:42:03.014Z,15.54
2017-09-14T22:45:54.012Z,15.48
2017-09-14T23:16:26.171Z,16.18
2017-09-14T23:28:33.808Z,15.98
2017-09-14T23:42:12.749Z,16.04
2017-09-14T23:47:11.984Z,15.99
